Flint, Michigan
Current Conditions -  °F | °C
As of 8:53 AM on Friday 24 Oct 2014 (Local Time) from KFNT Reporting Station
Haze Haze  
Wind Chill:   Ceiling: 5000
Heat Index:   Visibility: 3mi
Dew Point:   Wind: 0mph
Humidity: 89%   Direction: NA
Pressure: 30.08"   Gusts: NA
Location:  43.01°N, 83.68°W
Report Text: KFNT 241253Z 00000KT 3SM BR BKN050 BKN055 04/02 A3008 RMK AO2 SLP194 T00390022
Loading
Personal Weather Stations






























Interactive Weather Map New forecast layout! Learn more

10-Day Weather Forecast

Advertisements
Track Severe Weather on mobile